MS62 weather

Davis Field
Olive Branch, Mississippi, United States

Public forecast

Using degrees Fahrenheit for public forecast. Weather courtesy of forecast.io.

Closest aviation weather report (METAR) to Davis Field

Closest report is Olive Branch Airport, 1.6 nm (3.0 km) ESE. Retrieved 2020/04/08 05:15 UTC (12 minutes ago):

KOLV 080515Z AUTO VRB04KT 10SM OVC006 19/19 A2987 RMK A01

Closest aviation forecast (TAF) to Davis Field

Closest forecast is Memphis International Airport, 8.5 nm (15.7 km) WNW. Retrieved 2020-04-08 00:36 UTC (5 hours ago):

TAF KMEM 072334Z 0800/0906 19008KT P6SM OVC015 FM080600 21008KT P6SM OVC009 FM081500 24005KT P6SM SCT020 FM082000 24006KT P6SM BKN030 FM090500 27007KT P6SM VCTS BKN035CB